createdAt,value
2022-07-30T00:03:15.443Z,2.10
2022-07-30T00:08:22.651Z,2.60
2022-07-30T00:13:29.739Z,2.90
2022-07-30T00:18:36.956Z,2.90
2022-07-30T00:23:51.141Z,2.20
2022-07-30T00:29:09.635Z,2.50
2022-07-30T00:34:17.515Z,2.70
2022-07-30T00:39:24.610Z,2.20
2022-07-30T00:44:32.003Z,2.20
2022-07-30T00:49:43.960Z,2.60
2022-07-30T00:54:51.428Z,2.40
2022-07-30T01:00:01.783Z,2.50
2022-07-30T01:05:10.963Z,2.20
2022-07-30T01:10:18.446Z,2.60
2022-07-30T01:15:25.715Z,2.30
2022-07-30T01:20:38.286Z,2.60
2022-07-30T01:25:55.703Z,2.70
2022-07-30T01:31:04.335Z,2.60
2022-07-30T01:36:15.305Z,2.70
2022-07-30T01:41:24.305Z,3.00
2022-07-30T01:46:32.774Z,2.40
2022-07-30T01:51:40.920Z,2.30
2022-07-30T01:56:49.607Z,2.60
2022-07-30T02:01:57.839Z,2.30
2022-07-30T02:07:11.637Z,2.00
2022-07-30T02:12:30.114Z,2.60
2022-07-30T02:17:45.135Z,2.60
2022-07-30T02:22:56.654Z,2.60
2022-07-30T02:28:08.693Z,3.10
2022-07-30T02:33:20.183Z,2.70
2022-07-30T02:38:30.050Z,2.20
2022-07-30T02:43:38.832Z,2.60
2022-07-30T02:48:46.184Z,2.10
2022-07-30T02:59:06.176Z,2.40
2022-07-30T03:04:14.187Z,2.40
2022-07-30T03:09:22.544Z,2.50
2022-07-30T03:14:32.461Z,2.90
2022-07-30T03:19:42.730Z,2.40
2022-07-30T03:24:50.561Z,3.30
2022-07-30T03:29:59.339Z,2.50
2022-07-30T03:35:17.016Z,2.50
2022-07-30T03:40:27.206Z,2.90
2022-07-30T03:45:37.119Z,1.80
2022-07-30T03:50:46.403Z,2.30
2022-07-30T03:55:54.000Z,2.30
2022-07-30T04:01:21.012Z,2.20
2022-07-30T04:06:28.221Z,2.40
2022-07-30T04:11:40.930Z,2.70
2022-07-30T04:16:56.334Z,2.30
2022-07-30T04:22:07.283Z,2.30
2022-07-30T04:27:15.789Z,2.40
2022-07-30T04:32:22.807Z,2.50
2022-07-30T04:37:48.075Z,2.20
2022-07-30T04:42:55.655Z,2.30
2022-07-30T04:48:02.877Z,2.00
2022-07-30T04:53:25.427Z,2.50
2022-07-30T04:58:37.567Z,2.60
2022-07-30T05:03:46.141Z,2.20
2022-07-30T05:08:54.226Z,3.00
2022-07-30T05:14:01.565Z,2.40
2022-07-30T05:19:09.419Z,2.40
2022-07-30T05:24:18.079Z,2.90
2022-07-30T05:29:33.783Z,1.70
2022-07-30T05:34:50.265Z,2.10
2022-07-30T05:40:02.523Z,1.90
2022-07-30T05:45:39.647Z,2.50
2022-07-30T05:50:46.825Z,2.20
2022-07-30T05:55:54.298Z,2.10
2022-07-30T06:01:19.990Z,2.20
2022-07-30T06:06:27.898Z,2.10
2022-07-30T06:11:35.116Z,2.60
2022-07-30T06:16:42.337Z,2.20
2022-07-30T06:22:06.177Z,2.20
2022-07-30T06:27:19.157Z,2.40
2022-07-30T06:32:26.540Z,2.10
2022-07-30T06:38:01.793Z,1.90
2022-07-30T06:43:04.345Z,2.30
2022-07-30T06:48:33.088Z,1.80
2022-07-30T06:53:42.561Z,2.60
2022-07-30T06:58:52.753Z,2.00
2022-07-30T07:04:35.621Z,2.10
2022-07-30T07:09:44.797Z,2.00
2022-07-30T07:15:18.097Z,1.80
2022-07-30T07:20:31.424Z,2.40
2022-07-30T07:25:55.479Z,2.30
2022-07-30T07:31:04.383Z,1.80
2022-07-30T07:36:11.460Z,2.30
2022-07-30T07:41:18.723Z,1.90
2022-07-30T07:46:33.394Z,2.00
2022-07-30T07:51:47.279Z,2.20
2022-07-30T07:56:57.835Z,2.40
2022-07-30T08:02:23.294Z,2.10
2022-07-30T08:07:49.048Z,1.70
2022-07-30T08:13:04.100Z,2.60
2022-07-30T08:18:44.269Z,2.20
2022-07-30T08:24:10.288Z,2.10
2022-07-30T08:29:17.474Z,2.00
2022-07-30T08:34:25.784Z,1.90
2022-07-30T08:39:34.929Z,1.70
2022-07-30T08:44:45.130Z,2.10
2022-07-30T08:49:54.177Z,2.00
2022-07-30T08:55:07.570Z,2.20
2022-07-30T09:00:16.811Z,1.90
2022-07-30T09:05:24.755Z,2.10
2022-07-30T09:10:50.636Z,2.30
2022-07-30T09:16:02.341Z,2.40
2022-07-30T09:21:20.919Z,2.00
2022-07-30T09:26:33.112Z,2.20
2022-07-30T09:32:06.369Z,2.00
2022-07-30T09:37:32.352Z,2.60
2022-07-30T09:43:14.434Z,3.10
2022-07-30T09:48:25.891Z,3.00
2022-07-30T09:53:33.009Z,2.30
2022-07-30T09:58:45.466Z,2.80
2022-07-30T10:03:53.929Z,2.80
2022-07-30T10:09:14.156Z,2.50
2022-07-30T10:14:32.406Z,2.60
2022-07-30T10:19:42.043Z,2.60
2022-07-30T10:25:11.638Z,3.50
2022-07-30T10:30:45.635Z,3.30
2022-07-30T10:35:56.672Z,3.40
2022-07-30T10:41:14.835Z,4.40
2022-07-30T10:46:44.154Z,3.30
2022-07-30T10:51:55.097Z,3.30
2022-07-30T10:57:09.530Z,3.60
2022-07-30T11:02:17.980Z,3.90
2022-07-30T11:07:32.887Z,4.50
2022-07-30T11:13:00.580Z,4.00
2022-07-30T11:18:13.602Z,4.30
2022-07-30T11:23:40.921Z,4.30
2022-07-30T11:28:49.777Z,4.40
2022-07-30T11:34:27.760Z,4.40
2022-07-30T11:40:04.528Z,4.20
2022-07-30T11:45:29.807Z,4.90
2022-07-30T11:50:40.302Z,5.00
2022-07-30T12:00:56.732Z,5.50
2022-07-30T12:06:09.806Z,5.20
2022-07-30T12:11:16.972Z,4.80
2022-07-30T12:16:23.939Z,5.70
2022-07-30T12:21:31.233Z,5.90
2022-07-30T12:26:38.718Z,5.70
2022-07-30T12:31:46.323Z,6.10
2022-07-30T12:36:53.773Z,5.90
2022-07-30T12:42:00.873Z,6.20
2022-07-30T12:47:20.212Z,6.50
2022-07-30T12:52:31.500Z,9.70
2022-07-30T12:58:02.981Z,8.00
2022-07-30T13:03:25.143Z,6.30
2022-07-30T13:08:55.538Z,6.30
2022-07-30T13:19:11.372Z,7.50
2022-07-30T13:24:18.921Z,8.80
2022-07-30T13:29:26.255Z,7.80
2022-07-30T13:34:33.442Z,8.50
2022-07-30T13:39:40.329Z,7.40
2022-07-30T13:44:47.449Z,8.50
2022-07-30T13:49:54.794Z,7.90
2022-07-30T13:55:01.992Z,7.30
2022-07-30T14:00:12.653Z,6.70
2022-07-30T14:05:20.574Z,7.10
2022-07-30T14:10:28.185Z,6.90
2022-07-30T14:15:36.153Z,7.10
2022-07-30T14:20:48.749Z,6.60
2022-07-30T14:25:56.607Z,7.20
2022-07-30T14:31:03.796Z,3.90
2022-07-30T14:36:11.292Z,3.80
2022-07-30T14:41:18.263Z,6.30
2022-07-30T14:46:25.802Z,5.60
2022-07-30T14:51:34.716Z,5.90
2022-07-30T14:56:42.467Z,6.90
2022-07-30T15:01:49.827Z,6.80
2022-07-30T15:06:59.359Z,9.20
2022-07-30T15:12:11.119Z,9.80
2022-07-30T15:17:18.601Z,7.70
2022-07-30T15:22:26.348Z,6.70
2022-07-30T15:27:34.556Z,7.40
2022-07-30T15:32:42.287Z,7.40
2022-07-30T15:37:49.551Z,5.60
2022-07-30T15:42:57.181Z,5.20
2022-07-30T15:48:04.398Z,6.50
2022-07-30T15:53:17.341Z,5.50
2022-07-30T15:58:25.068Z,5.00
2022-07-30T16:03:32.299Z,5.50
2022-07-30T16:08:39.471Z,5.70
2022-07-30T16:13:48.568Z,6.00
2022-07-30T16:18:59.297Z,4.50
2022-07-30T16:24:15.112Z,4.80
2022-07-30T16:29:28.124Z,5.50
2022-07-30T16:34:36.852Z,5.70
2022-07-30T16:39:45.391Z,6.70
2022-07-30T16:44:52.491Z,6.90
2022-07-30T16:49:59.599Z,7.90
2022-07-30T16:55:07.938Z,8.20
2022-07-30T17:00:18.375Z,6.20
2022-07-30T17:10:31.692Z,6.90
2022-07-30T17:15:41.205Z,7.20
2022-07-30T17:20:48.611Z,8.30
2022-07-30T17:25:55.973Z,7.70
2022-07-30T17:31:03.101Z,8.40
2022-07-30T17:36:12.905Z,8.70
2022-07-30T17:41:19.950Z,9.20
2022-07-30T17:46:31.063Z,8.30
2022-07-30T17:51:38.155Z,7.70
2022-07-30T17:56:45.260Z,8.60
2022-07-30T18:01:52.792Z,8.30
2022-07-30T18:07:00.488Z,8.10
2022-07-30T18:12:08.298Z,8.30
2022-07-30T18:17:15.237Z,10.50
2022-07-30T18:22:29.817Z,9.70
2022-07-30T18:27:39.007Z,9.40
2022-07-30T18:32:46.378Z,7.70
2022-07-30T18:37:53.211Z,8.50
2022-07-30T18:43:00.292Z,8.20
2022-07-30T18:48:08.227Z,5.50
2022-07-30T18:53:16.001Z,6.00
2022-07-30T18:58:23.105Z,6.30
2022-07-30T19:03:30.458Z,5.60
2022-07-30T19:08:37.431Z,5.90
2022-07-30T19:13:45.035Z,5.20
2022-07-30T19:18:52.715Z,5.40
2022-07-30T19:24:00.754Z,6.10
2022-07-30T19:29:12.317Z,6.30
2022-07-30T19:34:19.599Z,4.60
2022-07-30T19:39:29.670Z,5.60
2022-07-30T19:44:42.270Z,3.90
2022-07-30T19:49:49.662Z,4.30
2022-07-30T19:54:56.628Z,5.00
2022-07-30T20:00:07.137Z,4.50
2022-07-30T20:05:24.872Z,3.60
2022-07-30T20:10:34.161Z,2.80
2022-07-30T20:15:44.363Z,2.90
2022-07-30T20:20:53.707Z,2.50
2022-07-30T20:26:13.445Z,2.30
2022-07-30T20:31:21.530Z,2.00
2022-07-30T20:36:33.382Z,2.50
2022-07-30T20:41:40.556Z,2.50
2022-07-30T20:46:47.883Z,3.20
2022-07-30T20:51:56.826Z,2.30
2022-07-30T20:57:06.398Z,2.70
2022-07-30T21:02:15.200Z,2.60
2022-07-30T21:07:22.365Z,3.30
2022-07-30T21:12:32.672Z,2.20
2022-07-30T21:22:46.332Z,2.40
2022-07-30T21:27:53.616Z,3.00
2022-07-30T21:33:01.070Z,3.10
2022-07-30T21:38:08.071Z,3.30
2022-07-30T21:43:15.873Z,3.60
2022-07-30T21:48:35.879Z,3.40
2022-07-30T21:53:46.326Z,4.50
2022-07-30T21:58:54.183Z,3.00
2022-07-30T22:04:08.305Z,3.90
2022-07-30T22:09:33.411Z,3.70
2022-07-30T22:14:41.980Z,3.40
2022-07-30T22:19:49.202Z,4.10
2022-07-30T22:24:58.291Z,3.70
2022-07-30T22:30:10.580Z,3.40
2022-07-30T22:35:33.639Z,4.90
2022-07-30T22:40:42.799Z,4.70
2022-07-30T22:45:50.196Z,5.10
2022-07-30T22:50:58.746Z,5.00
2022-07-30T22:56:06.334Z,4.20
2022-07-30T23:01:22.929Z,5.60
2022-07-30T23:06:30.269Z,4.20
2022-07-30T23:11:38.845Z,4.30
2022-07-30T23:16:50.498Z,5.70
2022-07-30T23:21:57.522Z,4.60
2022-07-30T23:27:05.883Z,4.80
2022-07-30T23:32:13.013Z,5.00
2022-07-30T23:37:20.214Z,4.40
2022-07-30T23:42:27.818Z,6.30
2022-07-30T23:47:52.887Z,7.10
2022-07-30T23:53:02.267Z,6.90
2022-07-30T23:58:09.602Z,6.70
